sensor_id;sensor_type;location;lat;lon;timestamp;temperature;humidity
10294;DHT22;5192;50.328;7.610;2023-01-01T00:01:48;12.50;2.70
10294;DHT22;5192;50.328;7.610;2023-01-01T00:04:14;12.50;2.70
10294;DHT22;5192;50.328;7.610;2023-01-01T00:06:40;12.60;1.00
10294;DHT22;5192;50.328;7.610;2023-01-01T00:09:08;12.50;1.00
10294;DHT22;5192;50.328;7.610;2023-01-01T00:11:53;12.80;1.00
10294;DHT22;5192;50.328;7.610;2023-01-01T00:14:20;12.80;1.00
10294;DHT22;5192;50.328;7.610;2023-01-01T00:16:46;12.90;1.00
10294;DHT22;5192;50.328;7.610;2023-01-01T00:19:13;12.90;1.00
10294;DHT22;5192;50.328;7.610;2023-01-01T00:21:39;12.90;1.00
10294;DHT22;5192;50.328;7.610;2023-01-01T00:24:06;12.80;1.00
10294;DHT22;5192;50.328;7.610;2023-01-01T00:26:34;12.90;1.00
10294;DHT22;5192;50.328;7.610;2023-01-01T00:29:03;12.80;1.00
10294;DHT22;5192;50.328;7.610;2023-01-01T00:31:31;12.90;1.00
10294;DHT22;5192;50.328;7.610;2023-01-01T00:33:58;12.80;1.00
10294;DHT22;5192;50.328;7.610;2023-01-01T00:36:26;12.80;1.00
10294;DHT22;5192;50.328;7.610;2023-01-01T00:38:54;12.70;1.80
10294;DHT22;5192;50.328;7.610;2023-01-01T00:41:21;12.80;1.30
10294;DHT22;5192;50.328;7.610;2023-01-01T00:43:48;12.70;2.00
10294;DHT22;5192;50.328;7.610;2023-01-01T00:46:14;12.70;2.50
10294;DHT22;5192;50.328;7.610;2023-01-01T00:48:41;12.80;1.60
10294;DHT22;5192;50.328;7.610;2023-01-01T00:51:08;12.80;2.30
10294;DHT22;5192;50.328;7.610;2023-01-01T00:53:34;12.80;1.10
10294;DHT22;5192;50.328;7.610;2023-01-01T00:56:01;13.00;1.00
10294;DHT22;5192;50.328;7.610;2023-01-01T00:58:28;12.80;1.00
10294;DHT22;5192;50.328;7.610;2023-01-01T01:00:54;12.80;1.00
10294;DHT22;5192;50.328;7.610;2023-01-01T01:03:20;12.90;1.00
10294;DHT22;5192;50.328;7.610;2023-01-01T01:08:32;13.10;1.00
10294;DHT22;5192;50.328;7.610;2023-01-01T01:11:08;13.00;1.00
10294;DHT22;5192;50.328;7.610;2023-01-01T01:13:35;13.10;1.00
10294;DHT22;5192;50.328;7.610;2023-01-01T01:16:13;13.10;1.00
10294;DHT22;5192;50.328;7.610;2023-01-01T01:18:40;13.00;1.00
10294;DHT22;5192;50.328;7.610;2023-01-01T01:21:09;13.00;1.00
10294;DHT22;5192;50.328;7.610;2023-01-01T01:23:35;13.00;1.00
10294;DHT22;5192;50.328;7.610;2023-01-01T01:28:38;13.10;1.00
10294;DHT22;5192;50.328;7.610;2023-01-01T01:31:06;13.10;1.00
10294;DHT22;5192;50.328;7.610;2023-01-01T01:33:31;13.00;1.00
10294;DHT22;5192;50.328;7.610;2023-01-01T01:36:00;12.90;1.50
10294;DHT22;5192;50.328;7.610;2023-01-01T01:38:28;12.90;2.80
10294;DHT22;5192;50.328;7.610;2023-01-01T01:40:56;12.90;3.50
10294;DHT22;5192;50.328;7.610;2023-01-01T01:43:44;12.80;4.90
10294;DHT22;5192;50.328;7.610;2023-01-01T01:46:16;12.80;5.30
10294;DHT22;5192;50.328;7.610;2023-01-01T01:48:47;12.70;6.60
10294;DHT22;5192;50.328;7.610;2023-01-01T01:51:15;12.80;7.10
10294;DHT22;5192;50.328;7.610;2023-01-01T01:53:48;12.70;7.10
10294;DHT22;5192;50.328;7.610;2023-01-01T01:56:23;12.70;6.50
10294;DHT22;5192;50.328;7.610;2023-01-01T01:58:52;12.70;6.60
10294;DHT22;5192;50.328;7.610;2023-01-01T02:01:18;12.70;6.60
10294;DHT22;5192;50.328;7.610;2023-01-01T02:04:03;12.80;5.60
10294;DHT22;5192;50.328;7.610;2023-01-01T02:06:32;12.80;5.80
10294;DHT22;5192;50.328;7.610;2023-01-01T02:09:02;12.80;5.90
10294;DHT22;5192;50.328;7.610;2023-01-01T02:11:30;12.80;7.10
10294;DHT22;5192;50.328;7.610;2023-01-01T02:13:56;12.80;7.00
10294;DHT22;5192;50.328;7.610;2023-01-01T02:16:42;12.80;5.90
10294;DHT22;5192;50.328;7.610;2023-01-01T02:23:08;12.80;6.40
10294;DHT22;5192;50.328;7.610;2023-01-01T02:32:21;13.00;1.50
10294;DHT22;5192;50.328;7.610;2023-01-01T02:41:11;13.20;1.00
10294;DHT22;5192;50.328;7.610;2023-01-01T02:43:40;13.20;1.00
10294;DHT22;5192;50.328;7.610;2023-01-01T02:46:09;13.20;1.00
10294;DHT22;5192;50.328;7.610;2023-01-01T02:48:54;13.10;1.00
10294;DHT22;5192;50.328;7.610;2023-01-01T02:57:42;13.30;1.00
10294;DHT22;5192;50.328;7.610;2023-01-01T03:00:13;13.50;1.00
10294;DHT22;5192;50.328;7.610;2023-01-01T03:03:27;13.50;1.00
10294;DHT22;5192;50.328;7.610;2023-01-01T03:06:27;13.50;1.00
10294;DHT22;5192;50.328;7.610;2023-01-01T03:17:40;13.40;1.00
10294;DHT22;5192;50.328;7.610;2023-01-01T03:20:20;13.50;1.00
10294;DHT22;5192;50.328;7.610;2023-01-01T03:22:48;13.50;1.00
10294;DHT22;5192;50.328;7.610;2023-01-01T03:25:23;13.40;1.00
10294;DHT22;5192;50.328;7.610;2023-01-01T03:28:16;13.50;1.00
10294;DHT22;5192;50.328;7.610;2023-01-01T03:30:46;13.50;1.00
10294;DHT22;5192;50.328;7.610;2023-01-01T03:33:38;13.60;1.00
10294;DHT22;5192;50.328;7.610;2023-01-01T03:36:19;13.60;1.00
10294;DHT22;5192;50.328;7.610;2023-01-01T03:38:57;13.70;1.00
10294;DHT22;5192;50.328;7.610;2023-01-01T03:41:38;13.70;1.00
10294;DHT22;5192;50.328;7.610;2023-01-01T03:44:28;13.70;1.00
10294;DHT22;5192;50.328;7.610;2023-01-01T03:47:12;13.80;1.00
10294;DHT22;5192;50.328;7.610;2023-01-01T03:49:43;13.70;1.00
10294;DHT22;5192;50.328;7.610;2023-01-01T03:55:36;13.60;1.00
10294;DHT22;5192;50.328;7.610;2023-01-01T04:01:21;13.50;1.00
10294;DHT22;5192;50.328;7.610;2023-01-01T04:03:50;13.70;1.00
10294;DHT22;5192;50.328;7.610;2023-01-01T04:06:17;13.70;1.00
10294;DHT22;5192;50.328;7.610;2023-01-01T04:08:45;13.70;1.00
10294;DHT22;5192;50.328;7.610;2023-01-01T04:11:31;13.70;1.00
10294;DHT22;5192;50.328;7.610;2023-01-01T04:14:38;13.70;1.00
10294;DHT22;5192;50.328;7.610;2023-01-01T04:17:08;13.70;1.00
10294;DHT22;5192;50.328;7.610;2023-01-01T04:19:36;13.60;1.00
10294;DHT22;5192;50.328;7.610;2023-01-01T04:22:03;13.70;1.00
10294;DHT22;5192;50.328;7.610;2023-01-01T04:24:29;13.70;1.00
10294;DHT22;5192;50.328;7.610;2023-01-01T04:26:55;13.60;1.00
10294;DHT22;5192;50.328;7.610;2023-01-01T04:29:24;13.50;1.00
10294;DHT22;5192;50.328;7.610;2023-01-01T04:31:51;13.50;1.00
10294;DHT22;5192;50.328;7.610;2023-01-01T04:34:19;13.50;1.00
10294;DHT22;5192;50.328;7.610;2023-01-01T04:36:45;13.60;1.00
10294;DHT22;5192;50.328;7.610;2023-01-01T04:39:10;13.60;1.00
10294;DHT22;5192;50.328;7.610;2023-01-01T04:41:37;13.60;1.00
10294;DHT22;5192;50.328;7.610;2023-01-01T04:44:04;13.50;1.00
10294;DHT22;5192;50.328;7.610;2023-01-01T04:46:30;13.70;1.00
10294;DHT22;5192;50.328;7.610;2023-01-01T04:48:57;13.60;1.00
10294;DHT22;5192;50.328;7.610;2023-01-01T04:51:25;13.50;1.00
10294;DHT22;5192;50.328;7.610;2023-01-01T04:53:52;13.70;1.00
10294;DHT22;5192;50.328;7.610;2023-01-01T04:56:21;13.60;1.00
10294;DHT22;5192;50.328;7.610;2023-01-01T04:58:49;13.50;1.00
10294;DHT22;5192;50.328;7.610;2023-01-01T05:01:25;13.50;1.00
10294;DHT22;5192;50.328;7.610;2023-01-01T05:03:51;13.50;1.00
10294;DHT22;5192;50.328;7.610;2023-01-01T05:06:17;13.60;1.00
10294;DHT22;5192;50.328;7.610;2023-01-01T05:08:49;13.60;1.00
10294;DHT22;5192;50.328;7.610;2023-01-01T05:11:34;13.60;1.00
10294;DHT22;5192;50.328;7.610;2023-01-01T05:14:00;13.50;1.00
10294;DHT22;5192;50.328;7.610;2023-01-01T05:16:32;13.50;1.00
10294;DHT22;5192;50.328;7.610;2023-01-01T05:18:59;13.50;1.00
10294;DHT22;5192;50.328;7.610;2023-01-01T05:21:28;13.40;1.00
10294;DHT22;5192;50.328;7.610;2023-01-01T05:23:59;13.40;1.00
10294;DHT22;5192;50.328;7.610;2023-01-01T05:26:31;13.40;1.00
10294;DHT22;5192;50.328;7.610;2023-01-01T05:28:59;13.40;1.00
10294;DHT22;5192;50.328;7.610;2023-01-01T05:31:30;13.50;1.00
10294;DHT22;5192;50.328;7.610;2023-01-01T05:33:57;13.40;1.00
10294;DHT22;5192;50.328;7.610;2023-01-01T05:36:27;13.50;1.00
10294;DHT22;5192;50.328;7.610;2023-01-01T05:38:56;13.50;1.00
10294;DHT22;5192;50.328;7.610;2023-01-01T05:41:23;13.60;1.00
10294;DHT22;5192;50.328;7.610;2023-01-01T05:43:51;13.60;1.00
10294;DHT22;5192;50.328;7.610;2023-01-01T05:46:21;13.50;1.00
10294;DHT22;5192;50.328;7.610;2023-01-01T05:48:51;13.50;1.00
10294;DHT22;5192;50.328;7.610;2023-01-01T05:51:24;13.50;1.00
10294;DHT22;5192;50.328;7.610;2023-01-01T05:53:51;13.40;1.00
10294;DHT22;5192;50.328;7.610;2023-01-01T05:56:18;13.50;1.00
10294;DHT22;5192;50.328;7.610;2023-01-01T05:58:44;13.60;1.00
10294;DHT22;5192;50.328;7.610;2023-01-01T06:01:22;13.60;1.00
10294;DHT22;5192;50.328;7.610;2023-01-01T06:03:53;13.70;1.00
10294;DHT22;5192;50.328;7.610;2023-01-01T06:06:26;13.70;1.00
10294;DHT22;5192;50.328;7.610;2023-01-01T06:08:56;13.70;1.00
10294;DHT22;5192;50.328;7.610;2023-01-01T06:11:25;13.70;1.00
10294;DHT22;5192;50.328;7.610;2023-01-01T06:13:53;13.80;1.00
10294;DHT22;5192;50.328;7.610;2023-01-01T06:16:19;13.80;1.00
10294;DHT22;5192;50.328;7.610;2023-01-01T06:18:47;13.80;1.00
10294;DHT22;5192;50.328;7.610;2023-01-01T06:21:19;13.80;1.00
10294;DHT22;5192;50.328;7.610;2023-01-01T06:23:46;13.80;1.00
10294;DHT22;5192;50.328;7.610;2023-01-01T06:26:31;13.80;1.00
10294;DHT22;5192;50.328;7.610;2023-01-01T06:28:58;13.70;1.00
10294;DHT22;5192;50.328;7.610;2023-01-01T06:31:26;13.80;1.00
10294;DHT22;5192;50.328;7.610;2023-01-01T06:33:54;13.80;1.00
10294;DHT22;5192;50.328;7.610;2023-01-01T06:36:22;13.80;1.00
10294;DHT22;5192;50.328;7.610;2023-01-01T06:38:52;13.80;1.00
10294;DHT22;5192;50.328;7.610;2023-01-01T06:41:26;13.80;1.00
10294;DHT22;5192;50.328;7.610;2023-01-01T06:43:57;13.90;1.00
10294;DHT22;5192;50.328;7.610;2023-01-01T06:46:28;13.90;1.00
10294;DHT22;5192;50.328;7.610;2023-01-01T06:48:58;14.00;1.00
10294;DHT22;5192;50.328;7.610;2023-01-01T06:51:27;14.10;1.00
10294;DHT22;5192;50.328;7.610;2023-01-01T06:53:59;14.10;1.00
10294;DHT22;5192;50.328;7.610;2023-01-01T06:56:27;14.10;1.00
10294;DHT22;5192;50.328;7.610;2023-01-01T06:58:54;14.20;1.00
10294;DHT22;5192;50.328;7.610;2023-01-01T07:01:26;14.30;1.00
10294;DHT22;5192;50.328;7.610;2023-01-01T07:04:00;14.30;1.00
10294;DHT22;5192;50.328;7.610;2023-01-01T07:06:29;14.50;1.00
10294;DHT22;5192;50.328;7.610;2023-01-01T07:08:56;14.50;1.00
10294;DHT22;5192;50.328;7.610;2023-01-01T07:11:25;14.50;1.00
10294;DHT22;5192;50.328;7.610;2023-01-01T07:13:52;14.40;1.00
10294;DHT22;5192;50.328;7.610;2023-01-01T07:16:21;14.40;1.00
10294;DHT22;5192;50.328;7.610;2023-01-01T07:18:50;14.40;1.00
10294;DHT22;5192;50.328;7.610;2023-01-01T07:21:30;14.40;1.00
10294;DHT22;5192;50.328;7.610;2023-01-01T07:24:00;14.40;1.00
10294;DHT22;5192;50.328;7.610;2023-01-01T07:26:28;14.40;1.00
10294;DHT22;5192;50.328;7.610;2023-01-01T07:28:57;14.40;1.00
10294;DHT22;5192;50.328;7.610;2023-01-01T07:31:24;14.40;1.00
10294;DHT22;5192;50.328;7.610;2023-01-01T07:33:51;14.50;1.00
10294;DHT22;5192;50.328;7.610;2023-01-01T07:36:17;14.40;1.00
10294;DHT22;5192;50.328;7.610;2023-01-01T07:38:44;14.50;1.00
10294;DHT22;5192;50.328;7.610;2023-01-01T07:41:11;14.40;1.00
10294;DHT22;5192;50.328;7.610;2023-01-01T07:43:38;14.50;1.00
10294;DHT22;5192;50.328;7.610;2023-01-01T07:46:06;14.40;1.00
10294;DHT22;5192;50.328;7.610;2023-01-01T07:48:35;14.30;1.00
10294;DHT22;5192;50.328;7.610;2023-01-01T07:51:02;14.30;1.00
10294;DHT22;5192;50.328;7.610;2023-01-01T07:53:27;14.30;1.00
10294;DHT22;5192;50.328;7.610;2023-01-01T07:55:54;14.30;1.00
10294;DHT22;5192;50.328;7.610;2023-01-01T07:58:22;14.30;1.00
10294;DHT22;5192;50.328;7.610;2023-01-01T08:00:50;14.40;1.00
10294;DHT22;5192;50.328;7.610;2023-01-01T08:03:18;14.40;1.00
10294;DHT22;5192;50.328;7.610;2023-01-01T08:05:46;14.30;1.00
10294;DHT22;5192;50.328;7.610;2023-01-01T08:08:15;14.30;1.00
10294;DHT22;5192;50.328;7.610;2023-01-01T08:10:41;14.40;1.00
10294;DHT22;5192;50.328;7.610;2023-01-01T08:13:07;14.40;1.00
10294;DHT22;5192;50.328;7.610;2023-01-01T08:15:35;14.40;1.00
10294;DHT22;5192;50.328;7.610;2023-01-01T08:18:04;14.40;1.00
10294;DHT22;5192;50.328;7.610;2023-01-01T08:20:32;14.50;1.00
10294;DHT22;5192;50.328;7.610;2023-01-01T08:23:02;14.50;1.00
10294;DHT22;5192;50.328;7.610;2023-01-01T08:25:29;14.50;1.00
10294;DHT22;5192;50.328;7.610;2023-01-01T08:27:56;14.50;1.00
10294;DHT22;5192;50.328;7.610;2023-01-01T08:30:23;14.50;1.00
10294;DHT22;5192;50.328;7.610;2023-01-01T08:32:48;14.60;1.00
10294;DHT22;5192;50.328;7.610;2023-01-01T08:35:16;14.60;1.00
10294;DHT22;5192;50.328;7.610;2023-01-01T08:37:43;14.60;1.00
10294;DHT22;5192;50.328;7.610;2023-01-01T08:40:11;14.60;1.00
10294;DHT22;5192;50.328;7.610;2023-01-01T08:42:40;14.70;1.00
10294;DHT22;5192;50.328;7.610;2023-01-01T08:45:08;14.60;1.00
10294;DHT22;5192;50.328;7.610;2023-01-01T08:47:34;14.70;1.00
10294;DHT22;5192;50.328;7.610;2023-01-01T08:50:03;14.60;1.00
10294;DHT22;5192;50.328;7.610;2023-01-01T08:52:30;14.60;1.00
10294;DHT22;5192;50.328;7.610;2023-01-01T08:54:58;14.70;1.00
10294;DHT22;5192;50.328;7.610;2023-01-01T08:57:29;14.60;1.00
10294;DHT22;5192;50.328;7.610;2023-01-01T08:59:56;14.70;1.00
10294;DHT22;5192;50.328;7.610;2023-01-01T09:02:23;14.70;1.00
10294;DHT22;5192;50.328;7.610;2023-01-01T09:04:50;14.70;1.00
10294;DHT22;5192;50.328;7.610;2023-01-01T09:07:17;14.80;1.00
10294;DHT22;5192;50.328;7.610;2023-01-01T09:09:43;14.70;1.00
10294;DHT22;5192;50.328;7.610;2023-01-01T09:12:13;14.70;1.00
10294;DHT22;5192;50.328;7.610;2023-01-01T09:14:40;14.70;1.00
10294;DHT22;5192;50.328;7.610;2023-01-01T09:17:07;14.70;1.00
10294;DHT22;5192;50.328;7.610;2023-01-01T09:19:35;14.70;1.00
10294;DHT22;5192;50.328;7.610;2023-01-01T09:22:02;14.70;1.00
10294;DHT22;5192;50.328;7.610;2023-01-01T09:24:29;14.70;1.00
10294;DHT22;5192;50.328;7.610;2023-01-01T09:26:56;14.70;1.00
10294;DHT22;5192;50.328;7.610;2023-01-01T09:29:22;14.70;1.00
10294;DHT22;5192;50.328;7.610;2023-01-01T09:31:49;14.80;1.00
10294;DHT22;5192;50.328;7.610;2023-01-01T09:34:15;14.70;1.00
10294;DHT22;5192;50.328;7.610;2023-01-01T09:36:43;14.70;1.00
10294;DHT22;5192;50.328;7.610;2023-01-01T09:39:14;14.70;1.00
10294;DHT22;5192;50.328;7.610;2023-01-01T09:48:09;14.80;1.00
10294;DHT22;5192;50.328;7.610;2023-01-01T09:50:40;14.80;1.00
10294;DHT22;5192;50.328;7.610;2023-01-01T09:55:59;14.70;1.00
10294;DHT22;5192;50.328;7.610;2023-01-01T09:58:34;14.70;1.00
10294;DHT22;5192;50.328;7.610;2023-01-01T10:06:51;14.70;1.00
10294;DHT22;5192;50.328;7.610;2023-01-01T10:15:15;14.70;1.00
10294;DHT22;5192;50.328;7.610;2023-01-01T10:17:47;14.70;1.00
10294;DHT22;5192;50.328;7.610;2023-01-01T10:23:17;14.70;1.00
10294;DHT22;5192;50.328;7.610;2023-01-01T10:25:45;14.60;1.00
10294;DHT22;5192;50.328;7.610;2023-01-01T10:28:37;14.60;1.00
10294;DHT22;5192;50.328;7.610;2023-01-01T10:31:35;14.60;1.00
10294;DHT22;5192;50.328;7.610;2023-01-01T10:34:14;14.60;1.00
10294;DHT22;5192;50.328;7.610;2023-01-01T10:36:57;14.60;1.00
10294;DHT22;5192;50.328;7.610;2023-01-01T10:39:29;14.60;1.00
10294;DHT22;5192;50.328;7.610;2023-01-01T10:41:59;14.60;1.00
10294;DHT22;5192;50.328;7.610;2023-01-01T10:44:34;14.60;1.00
10294;DHT22;5192;50.328;7.610;2023-01-01T10:50:05;14.60;1.00
10294;DHT22;5192;50.328;7.610;2023-01-01T10:52:40;14.60;1.00
10294;DHT22;5192;50.328;7.610;2023-01-01T10:55:19;14.60;1.00
10294;DHT22;5192;50.328;7.610;2023-01-01T10:57:45;14.60;1.00
10294;DHT22;5192;50.328;7.610;2023-01-01T11:03:20;14.60;1.00
10294;DHT22;5192;50.328;7.610;2023-01-01T11:09:25;14.50;1.00
10294;DHT22;5192;50.328;7.610;2023-01-01T11:12:04;14.50;1.00
10294;DHT22;5192;50.328;7.610;2023-01-01T11:14:52;14.60;1.00
10294;DHT22;5192;50.328;7.610;2023-01-01T11:17:30;14.60;1.00
10294;DHT22;5192;50.328;7.610;2023-01-01T11:20:00;14.60;1.00
10294;DHT22;5192;50.328;7.610;2023-01-01T11:22:47;14.60;1.00
10294;DHT22;5192;50.328;7.610;2023-01-01T11:25:28;14.60;1.00
10294;DHT22;5192;50.328;7.610;2023-01-01T11:28:19;14.60;1.00
10294;DHT22;5192;50.328;7.610;2023-01-01T11:31:13;14.60;1.00
10294;DHT22;5192;50.328;7.610;2023-01-01T11:34:00;14.60;1.00
10294;DHT22;5192;50.328;7.610;2023-01-01T11:36:33;14.70;1.00
10294;DHT22;5192;50.328;7.610;2023-01-01T11:39:26;14.70;1.00
10294;DHT22;5192;50.328;7.610;2023-01-01T11:42:19;14.70;1.00
10294;DHT22;5192;50.328;7.610;2023-01-01T11:45:23;14.70;1.00
10294;DHT22;5192;50.328;7.610;2023-01-01T11:48:10;14.80;1.00
10294;DHT22;5192;50.328;7.610;2023-01-01T11:50:54;14.90;1.00
10294;DHT22;5192;50.328;7.610;2023-01-01T11:56:14;15.30;1.00
10294;DHT22;5192;50.328;7.610;2023-01-01T12:01:23;15.50;1.00
10294;DHT22;5192;50.328;7.610;2023-01-01T12:04:23;15.50;1.00
10294;DHT22;5192;50.328;7.610;2023-01-01T12:07:04;15.50;1.00
10294;DHT22;5192;50.328;7.610;2023-01-01T12:10:07;15.60;1.00
10294;DHT22;5192;50.328;7.610;2023-01-01T12:15:37;15.40;1.00
10294;DHT22;5192;50.328;7.610;2023-01-01T12:21:30;15.30;1.00
10294;DHT22;5192;50.328;7.610;2023-01-01T12:24:00;15.30;1.00
10294;DHT22;5192;50.328;7.610;2023-01-01T12:26:33;15.30;1.00
10294;DHT22;5192;50.328;7.610;2023-01-01T12:31:44;15.30;1.00
10294;DHT22;5192;50.328;7.610;2023-01-01T12:43:26;15.20;1.00
10294;DHT22;5192;50.328;7.610;2023-01-01T12:46:30;15.20;1.00
10294;DHT22;5192;50.328;7.610;2023-01-01T12:55:28;15.10;1.00
10294;DHT22;5192;50.328;7.610;2023-01-01T13:01:30;14.90;1.00
10294;DHT22;5192;50.328;7.610;2023-01-01T13:04:17;14.90;1.00
10294;DHT22;5192;50.328;7.610;2023-01-01T13:07:11;14.80;1.00
10294;DHT22;5192;50.328;7.610;2023-01-01T13:09:42;14.80;1.00
10294;DHT22;5192;50.328;7.610;2023-01-01T13:12:22;14.80;1.00
10294;DHT22;5192;50.328;7.610;2023-01-01T13:14:51;14.70;1.00
10294;DHT22;5192;50.328;7.610;2023-01-01T13:17:28;14.80;1.00
10294;DHT22;5192;50.328;7.610;2023-01-01T13:22:40;14.80;1.00
10294;DHT22;5192;50.328;7.610;2023-01-01T13:38:58;14.70;1.00
10294;DHT22;5192;50.328;7.610;2023-01-01T13:47:02;14.80;1.00
10294;DHT22;5192;50.328;7.610;2023-01-01T13:50:13;14.70;1.00
10294;DHT22;5192;50.328;7.610;2023-01-01T14:04:50;14.60;1.00
10294;DHT22;5192;50.328;7.610;2023-01-01T14:07:39;14.50;1.00
10294;DHT22;5192;50.328;7.610;2023-01-01T14:18:37;14.40;1.00
10294;DHT22;5192;50.328;7.610;2023-01-01T14:21:12;14.40;1.00
10294;DHT22;5192;50.328;7.610;2023-01-01T14:23:41;14.40;1.00
10294;DHT22;5192;50.328;7.610;2023-01-01T14:26:16;14.40;1.00
10294;DHT22;5192;50.328;7.610;2023-01-01T14:28:44;14.40;1.00
10294;DHT22;5192;50.328;7.610;2023-01-01T14:31:16;14.40;1.00
10294;DHT22;5192;50.328;7.610;2023-01-01T14:33:44;14.40;1.00
10294;DHT22;5192;50.328;7.610;2023-01-01T14:36:30;14.30;1.00
10294;DHT22;5192;50.328;7.610;2023-01-01T14:39:01;14.30;1.00
10294;DHT22;5192;50.328;7.610;2023-01-01T14:41:41;14.30;1.00
10294;DHT22;5192;50.328;7.610;2023-01-01T14:44:39;14.30;1.00
10294;DHT22;5192;50.328;7.610;2023-01-01T14:47:32;14.20;1.00
10294;DHT22;5192;50.328;7.610;2023-01-01T14:52:34;14.20;1.00
10294;DHT22;5192;50.328;7.610;2023-01-01T14:55:03;14.10;1.00
10294;DHT22;5192;50.328;7.610;2023-01-01T14:57:32;14.10;1.00
10294;DHT22;5192;50.328;7.610;2023-01-01T15:00:25;14.10;1.00
10294;DHT22;5192;50.328;7.610;2023-01-01T15:02:52;14.10;1.00
10294;DHT22;5192;50.328;7.610;2023-01-01T15:05:36;14.10;1.00
10294;DHT22;5192;50.328;7.610;2023-01-01T15:08:05;14.10;1.00
10294;DHT22;5192;50.328;7.610;2023-01-01T15:10:35;14.00;1.00
10294;DHT22;5192;50.328;7.610;2023-01-01T15:13:06;14.00;1.00
10294;DHT22;5192;50.328;7.610;2023-01-01T15:15:48;14.00;1.00
10294;DHT22;5192;50.328;7.610;2023-01-01T15:18:34;14.00;1.00
10294;DHT22;5192;50.328;7.610;2023-01-01T15:21:32;14.00;1.00
10294;DHT22;5192;50.328;7.610;2023-01-01T15:24:18;14.00;1.00
10294;DHT22;5192;50.328;7.610;2023-01-01T15:27:06;14.00;1.00
10294;DHT22;5192;50.328;7.610;2023-01-01T15:29:51;14.00;2.30
10294;DHT22;5192;50.328;7.610;2023-01-01T15:32:31;13.90;1.90
10294;DHT22;5192;50.328;7.610;2023-01-01T15:35:01;13.90;2.00
10294;DHT22;5192;50.328;7.610;2023-01-01T15:37:40;13.90;1.30
10294;DHT22;5192;50.328;7.610;2023-01-01T15:45:40;14.00;1.00
10294;DHT22;5192;50.328;7.610;2023-01-01T15:53:25;13.90;2.10
10294;DHT22;5192;50.328;7.610;2023-01-01T15:56:11;13.90;3.70
10294;DHT22;5192;50.328;7.610;2023-01-01T15:58:57;13.90;4.00
10294;DHT22;5192;50.328;7.610;2023-01-01T16:01:33;13.80;7.90
10294;DHT22;5192;50.328;7.610;2023-01-01T16:04:25;13.80;11.40
10294;DHT22;5192;50.328;7.610;2023-01-01T16:06:56;13.70;14.30
10294;DHT22;5192;50.328;7.610;2023-01-01T16:09:23;13.60;13.10
10294;DHT22;5192;50.328;7.610;2023-01-01T16:11:55;13.50;14.30
10294;DHT22;5192;50.328;7.610;2023-01-01T16:14:23;13.50;15.20
10294;DHT22;5192;50.328;7.610;2023-01-01T16:16:52;13.50;15.80
10294;DHT22;5192;50.328;7.610;2023-01-01T16:19:21;13.50;16.30
10294;DHT22;5192;50.328;7.610;2023-01-01T16:21:47;13.50;16.50
10294;DHT22;5192;50.328;7.610;2023-01-01T16:24:14;13.50;16.30
10294;DHT22;5192;50.328;7.610;2023-01-01T16:26:41;13.50;18.10
10294;DHT22;5192;50.328;7.610;2023-01-01T16:29:09;13.40;18.80
10294;DHT22;5192;50.328;7.610;2023-01-01T16:31:34;13.40;17.60
10294;DHT22;5192;50.328;7.610;2023-01-01T16:34:04;13.30;18.60
10294;DHT22;5192;50.328;7.610;2023-01-01T16:36:32;13.30;18.30
10294;DHT22;5192;50.328;7.610;2023-01-01T16:38:59;13.30;16.20
10294;DHT22;5192;50.328;7.610;2023-01-01T16:41:26;13.30;16.40
10294;DHT22;5192;50.328;7.610;2023-01-01T16:43:55;13.30;16.90
10294;DHT22;5192;50.328;7.610;2023-01-01T16:46:21;13.30;17.10
10294;DHT22;5192;50.328;7.610;2023-01-01T16:48:47;13.30;17.00
10294;DHT22;5192;50.328;7.610;2023-01-01T16:51:19;13.30;17.00
10294;DHT22;5192;50.328;7.610;2023-01-01T16:53:46;13.30;15.90
10294;DHT22;5192;50.328;7.610;2023-01-01T16:56:14;13.30;16.20
10294;DHT22;5192;50.328;7.610;2023-01-01T16:58:43;13.30;14.60
10294;DHT22;5192;50.328;7.610;2023-01-01T17:01:10;13.40;14.80
10294;DHT22;5192;50.328;7.610;2023-01-01T17:03:37;13.40;14.90
10294;DHT22;5192;50.328;7.610;2023-01-01T17:06:06;13.40;14.60
10294;DHT22;5192;50.328;7.610;2023-01-01T17:08:35;13.20;14.10
10294;DHT22;5192;50.328;7.610;2023-01-01T17:11:08;13.40;14.50
10294;DHT22;5192;50.328;7.610;2023-01-01T17:13:46;13.30;15.30
10294;DHT22;5192;50.328;7.610;2023-01-01T17:16:14;13.30;15.10
10294;DHT22;5192;50.328;7.610;2023-01-01T17:18:41;13.30;13.90
10294;DHT22;5192;50.328;7.610;2023-01-01T17:21:09;13.30;15.00
10294;DHT22;5192;50.328;7.610;2023-01-01T17:23:39;13.30;15.80
10294;DHT22;5192;50.328;7.610;2023-01-01T17:26:25;13.20;16.30
10294;DHT22;5192;50.328;7.610;2023-01-01T17:28:53;13.20;16.90
10294;DHT22;5192;50.328;7.610;2023-01-01T17:31:19;13.10;17.20
10294;DHT22;5192;50.328;7.610;2023-01-01T17:33:46;13.10;17.00
10294;DHT22;5192;50.328;7.610;2023-01-01T17:36:14;13.00;17.20
10294;DHT22;5192;50.328;7.610;2023-01-01T17:38:40;13.00;17.10
10294;DHT22;5192;50.328;7.610;2023-01-01T17:41:10;13.00;17.10
10294;DHT22;5192;50.328;7.610;2023-01-01T17:43:39;13.00;16.80
10294;DHT22;5192;50.328;7.610;2023-01-01T17:46:16;12.90;17.20
10294;DHT22;5192;50.328;7.610;2023-01-01T17:48:44;13.00;17.20
10294;DHT22;5192;50.328;7.610;2023-01-01T17:51:11;12.90;17.40
10294;DHT22;5192;50.328;7.610;2023-01-01T17:53:39;12.90;17.90
10294;DHT22;5192;50.328;7.610;2023-01-01T17:56:06;12.90;18.60
10294;DHT22;5192;50.328;7.610;2023-01-01T17:58:34;12.90;18.50
10294;DHT22;5192;50.328;7.610;2023-01-01T18:04:11;12.80;18.70
10294;DHT22;5192;50.328;7.610;2023-01-01T18:06:40;12.90;19.30
10294;DHT22;5192;50.328;7.610;2023-01-01T18:09:11;12.90;19.50
10294;DHT22;5192;50.328;7.610;2023-01-01T18:11:41;12.90;19.00
10294;DHT22;5192;50.328;7.610;2023-01-01T18:14:08;12.90;19.50
10294;DHT22;5192;50.328;7.610;2023-01-01T18:16:35;12.90;19.40
10294;DHT22;5192;50.328;7.610;2023-01-01T18:19:03;12.90;20.10
10294;DHT22;5192;50.328;7.610;2023-01-01T18:21:35;12.90;19.40
10294;DHT22;5192;50.328;7.610;2023-01-01T18:24:05;13.00;19.10
10294;DHT22;5192;50.328;7.610;2023-01-01T18:26:32;13.00;19.30
10294;DHT22;5192;50.328;7.610;2023-01-01T18:29:02;13.00;19.20
10294;DHT22;5192;50.328;7.610;2023-01-01T18:31:31;13.00;19.30
10294;DHT22;5192;50.328;7.610;2023-01-01T18:33:58;13.00;18.60
10294;DHT22;5192;50.328;7.610;2023-01-01T18:36:27;13.00;19.10
10294;DHT22;5192;50.328;7.610;2023-01-01T18:39:20;13.00;18.80
10294;DHT22;5192;50.328;7.610;2023-01-01T18:42:08;13.10;19.00
10294;DHT22;5192;50.328;7.610;2023-01-01T18:44:37;13.10;18.80
10294;DHT22;5192;50.328;7.610;2023-01-01T18:47:11;13.10;18.60
10294;DHT22;5192;50.328;7.610;2023-01-01T18:49:38;13.10;18.50
10294;DHT22;5192;50.328;7.610;2023-01-01T18:54:35;13.10;18.50
10294;DHT22;5192;50.328;7.610;2023-01-01T18:59:55;13.10;18.60
10294;DHT22;5192;50.328;7.610;2023-01-01T19:02:28;13.20;18.50
10294;DHT22;5192;50.328;7.610;2023-01-01T19:05:25;13.20;18.50
10294;DHT22;5192;50.328;7.610;2023-01-01T19:08:21;13.20;17.40
10294;DHT22;5192;50.328;7.610;2023-01-01T19:11:04;13.20;17.00
10294;DHT22;5192;50.328;7.610;2023-01-01T19:13:37;13.30;17.40
10294;DHT22;5192;50.328;7.610;2023-01-01T19:18:41;13.30;17.20
10294;DHT22;5192;50.328;7.610;2023-01-01T19:21:27;13.30;16.60
10294;DHT22;5192;50.328;7.610;2023-01-01T19:23:59;13.30;16.10
10294;DHT22;5192;50.328;7.610;2023-01-01T19:26:45;13.30;16.00
10294;DHT22;5192;50.328;7.610;2023-01-01T19:29:19;13.30;15.60
10294;DHT22;5192;50.328;7.610;2023-01-01T19:31:48;13.30;15.80